sensor_id;sensor_type;location;lat;lon;timestamp;P1;durP1;ratioP1;P2;durP2;ratioP2
4806;SDS011;2417;52.482;13.432;2024-03-23T00:53:13;30.53;;;5.13;;
4806;SDS011;2417;52.482;13.432;2024-03-23T00:55:42;35.93;;;5.70;;
4806;SDS011;2417;52.482;13.432;2024-03-23T00:58:10;30.97;;;5.70;;
4806;SDS011;2417;52.482;13.432;2024-03-23T01:00:37;22.53;;;5.73;;
4806;SDS011;2417;52.482;13.432;2024-03-23T01:03:04;31.40;;;5.40;;
4806;SDS011;2417;52.482;13.432;2024-03-23T01:05:31;32.53;;;6.60;;
4806;SDS011;2417;52.482;13.432;2024-03-23T01:07:56;34.60;;;6.10;;
4806;SDS011;2417;52.482;13.432;2024-03-23T01:10:25;29.93;;;5.87;;
4806;SDS011;2417;52.482;13.432;2024-03-23T01:12:51;36.43;;;6.37;;
4806;SDS011;2417;52.482;13.432;2024-03-23T01:15:18;35.37;;;6.73;;
4806;SDS011;2417;52.482;13.432;2024-03-23T01:17:44;41.03;;;6.33;;
4806;SDS011;2417;52.482;13.432;2024-03-23T01:20:11;28.03;;;5.90;;
4806;SDS011;2417;52.482;13.432;2024-03-23T01:22:37;42.00;;;6.77;;
4806;SDS011;2417;52.482;13.432;2024-03-23T01:25:05;35.80;;;6.67;;
4806;SDS011;2417;52.482;13.432;2024-03-23T01:27:32;29.40;;;5.20;;
4806;SDS011;2417;52.482;13.432;2024-03-23T01:30:00;33.43;;;6.17;;
4806;SDS011;2417;52.482;13.432;2024-03-23T01:32:26;35.37;;;6.97;;
4806;SDS011;2417;52.482;13.432;2024-03-23T01:34:53;52.60;;;6.67;;
4806;SDS011;2417;52.482;13.432;2024-03-23T01:37:19;36.00;;;6.97;;
4806;SDS011;2417;52.482;13.432;2024-03-23T01:39:46;53.77;;;7.87;;
4806;SDS011;2417;52.482;13.432;2024-03-23T01:42:13;38.80;;;6.87;;
4806;SDS011;2417;52.482;13.432;2024-03-23T01:44:41;48.33;;;7.70;;
4806;SDS011;2417;52.482;13.432;2024-03-23T01:47:08;38.27;;;7.20;;
4806;SDS011;2417;52.482;13.432;2024-03-23T01:49:35;34.97;;;9.63;;
4806;SDS011;2417;52.482;13.432;2024-03-23T01:52:02;34.77;;;7.67;;
4806;SDS011;2417;52.482;13.432;2024-03-23T01:54:29;42.93;;;7.60;;
4806;SDS011;2417;52.482;13.432;2024-03-23T01:56:56;35.20;;;6.70;;
4806;SDS011;2417;52.482;13.432;2024-03-23T01:59:23;40.50;;;6.80;;
4806;SDS011;2417;52.482;13.432;2024-03-23T02:01:51;47.30;;;8.07;;
4806;SDS011;2417;52.482;13.432;2024-03-23T02:04:21;39.43;;;7.13;;
4806;SDS011;2417;52.482;13.432;2024-03-23T02:06:48;28.33;;;6.93;;
4806;SDS011;2417;52.482;13.432;2024-03-23T02:09:15;39.50;;;7.27;;
4806;SDS011;2417;52.482;13.432;2024-03-23T02:11:41;32.93;;;6.30;;
4806;SDS011;2417;52.482;13.432;2024-03-23T02:14:09;39.93;;;6.63;;
4806;SDS011;2417;52.482;13.432;2024-03-23T02:16:35;31.87;;;7.47;;
4806;SDS011;2417;52.482;13.432;2024-03-23T02:19:04;46.93;;;7.80;;
4806;SDS011;2417;52.482;13.432;2024-03-23T02:21:30;45.17;;;7.50;;
4806;SDS011;2417;52.482;13.432;2024-03-23T02:24:00;40.30;;;8.07;;
4806;SDS011;2417;52.482;13.432;2024-03-23T02:26:26;52.67;;;7.90;;
4806;SDS011;2417;52.482;13.432;2024-03-23T02:28:53;35.20;;;6.60;;
4806;SDS011;2417;52.482;13.432;2024-03-23T02:31:19;41.77;;;6.70;;
4806;SDS011;2417;52.482;13.432;2024-03-23T02:33:46;39.77;;;6.23;;
4806;SDS011;2417;52.482;13.432;2024-03-23T02:36:12;37.43;;;6.97;;
4806;SDS011;2417;52.482;13.432;2024-03-23T02:38:39;36.63;;;7.40;;
4806;SDS011;2417;52.482;13.432;2024-03-23T02:41:07;27.73;;;7.00;;
4806;SDS011;2417;52.482;13.432;2024-03-23T02:43:34;41.63;;;7.50;;
4806;SDS011;2417;52.482;13.432;2024-03-23T02:46:00;46.10;;;7.97;;
4806;SDS011;2417;52.482;13.432;2024-03-23T02:48:28;41.00;;;7.63;;
4806;SDS011;2417;52.482;13.432;2024-03-23T02:50:55;59.67;;;9.13;;
4806;SDS011;2417;52.482;13.432;2024-03-23T02:53:22;47.43;;;8.10;;
4806;SDS011;2417;52.482;13.432;2024-03-23T02:55:48;44.00;;;7.53;;
4806;SDS011;2417;52.482;13.432;2024-03-23T02:58:16;29.93;;;7.53;;
4806;SDS011;2417;52.482;13.432;2024-03-23T03:00:43;42.60;;;8.00;;
4806;SDS011;2417;52.482;13.432;2024-03-23T03:03:10;39.27;;;8.10;;
4806;SDS011;2417;52.482;13.432;2024-03-23T03:05:36;40.00;;;8.87;;
4806;SDS011;2417;52.482;13.432;2024-03-23T03:08:03;54.87;;;8.47;;
4806;SDS011;2417;52.482;13.432;2024-03-23T03:10:30;29.80;;;6.70;;
4806;SDS011;2417;52.482;13.432;2024-03-23T03:13:00;34.03;;;8.23;;
4806;SDS011;2417;52.482;13.432;2024-03-23T03:15:28;36.97;;;7.63;;
4806;SDS011;2417;52.482;13.432;2024-03-23T03:17:55;31.90;;;7.80;;
4806;SDS011;2417;52.482;13.432;2024-03-23T03:20:25;35.53;;;7.70;;
4806;SDS011;2417;52.482;13.432;2024-03-23T03:22:52;49.17;;;8.53;;
4806;SDS011;2417;52.482;13.432;2024-03-23T03:25:19;38.50;;;7.77;;
4806;SDS011;2417;52.482;13.432;2024-03-23T03:27:46;42.00;;;8.10;;
4806;SDS011;2417;52.482;13.432;2024-03-23T03:30:12;39.07;;;7.00;;
4806;SDS011;2417;52.482;13.432;2024-03-23T03:32:41;35.20;;;7.80;;
4806;SDS011;2417;52.482;13.432;2024-03-23T03:35:07;37.77;;;8.27;;
4806;SDS011;2417;52.482;13.432;2024-03-23T03:37:57;45.23;;;8.20;;
4806;SDS011;2417;52.482;13.432;2024-03-23T03:40:23;36.00;;;8.40;;
4806;SDS011;2417;52.482;13.432;2024-03-23T03:42:51;39.20;;;8.33;;
4806;SDS011;2417;52.482;13.432;2024-03-23T03:45:17;42.03;;;9.00;;
4806;SDS011;2417;52.482;13.432;2024-03-23T03:47:46;37.80;;;8.47;;
4806;SDS011;2417;52.482;13.432;2024-03-23T03:50:12;46.53;;;9.10;;
4806;SDS011;2417;52.482;13.432;2024-03-23T03:52:39;35.33;;;7.90;;
4806;SDS011;2417;52.482;13.432;2024-03-23T03:55:09;33.23;;;7.60;;
4806;SDS011;2417;52.482;13.432;2024-03-23T03:57:38;39.77;;;9.60;;
4806;SDS011;2417;52.482;13.432;2024-03-23T04:00:04;31.30;;;8.67;;
4806;SDS011;2417;52.482;13.432;2024-03-23T04:02:32;36.80;;;8.30;;
4806;SDS011;2417;52.482;13.432;2024-03-23T04:04:59;28.07;;;8.50;;
4806;SDS011;2417;52.482;13.432;2024-03-23T04:07:28;39.40;;;9.70;;
4806;SDS011;2417;52.482;13.432;2024-03-23T04:09:55;47.37;;;9.60;;
4806;SDS011;2417;52.482;13.432;2024-03-23T04:12:22;43.93;;;9.13;;
4806;SDS011;2417;52.482;13.432;2024-03-23T04:14:48;39.10;;;9.87;;
4806;SDS011;2417;52.482;13.432;2024-03-23T04:17:15;46.13;;;10.03;;
4806;SDS011;2417;52.482;13.432;2024-03-23T04:19:41;40.40;;;10.83;;
4806;SDS011;2417;52.482;13.432;2024-03-23T04:22:10;41.53;;;9.60;;
4806;SDS011;2417;52.482;13.432;2024-03-23T04:24:36;44.17;;;8.73;;
4806;SDS011;2417;52.482;13.432;2024-03-23T04:27:03;36.40;;;7.93;;
4806;SDS011;2417;52.482;13.432;2024-03-23T04:29:29;32.53;;;8.90;;
4806;SDS011;2417;52.482;13.432;2024-03-23T04:31:57;27.63;;;8.23;;
4806;SDS011;2417;52.482;13.432;2024-03-23T04:34:23;23.90;;;5.97;;
4806;SDS011;2417;52.482;13.432;2024-03-23T04:36:50;20.43;;;5.90;;
4806;SDS011;2417;52.482;13.432;2024-03-23T04:39:18;17.67;;;5.80;;
4806;SDS011;2417;52.482;13.432;2024-03-23T04:41:45;29.17;;;6.03;;
4806;SDS011;2417;52.482;13.432;2024-03-23T04:44:12;21.30;;;5.60;;
4806;SDS011;2417;52.482;13.432;2024-03-23T04:46:39;22.57;;;6.80;;
4806;SDS011;2417;52.482;13.432;2024-03-23T04:49:05;22.23;;;6.67;;
4806;SDS011;2417;52.482;13.432;2024-03-23T04:51:35;18.90;;;5.87;;
4806;SDS011;2417;52.482;13.432;2024-03-23T04:54:02;17.97;;;5.27;;
4806;SDS011;2417;52.482;13.432;2024-03-23T04:56:32;13.13;;;4.23;;
4806;SDS011;2417;52.482;13.432;2024-03-23T04:58:59;23.70;;;6.10;;
4806;SDS011;2417;52.482;13.432;2024-03-23T05:01:27;16.30;;;5.77;;
4806;SDS011;2417;52.482;13.432;2024-03-23T05:03:54;22.30;;;5.50;;
4806;SDS011;2417;52.482;13.432;2024-03-23T05:06:20;30.27;;;9.23;;
4806;SDS011;2417;52.482;13.432;2024-03-23T05:08:47;17.17;;;7.47;;
4806;SDS011;2417;52.482;13.432;2024-03-23T05:11:13;27.10;;;4.87;;
4806;SDS011;2417;52.482;13.432;2024-03-23T05:13:43;16.40;;;6.30;;
4806;SDS011;2417;52.482;13.432;2024-03-23T05:16:09;28.30;;;5.50;;
4806;SDS011;2417;52.482;13.432;2024-03-23T05:18:36;23.73;;;4.50;;
4806;SDS011;2417;52.482;13.432;2024-03-23T05:21:02;19.20;;;4.47;;
4806;SDS011;2417;52.482;13.432;2024-03-23T05:23:29;20.80;;;5.63;;
4806;SDS011;2417;52.482;13.432;2024-03-23T05:25:55;19.17;;;5.73;;
4806;SDS011;2417;52.482;13.432;2024-03-23T05:28:23;23.07;;;4.77;;
4806;SDS011;2417;52.482;13.432;2024-03-23T05:30:53;22.70;;;4.10;;
4806;SDS011;2417;52.482;13.432;2024-03-23T05:33:21;31.53;;;8.17;;
4806;SDS011;2417;52.482;13.432;2024-03-23T05:35:47;19.50;;;5.57;;
4806;SDS011;2417;52.482;13.432;2024-03-23T05:38:24;29.30;;;6.70;;
4806;SDS011;2417;52.482;13.432;2024-03-23T05:40:53;24.30;;;6.70;;
4806;SDS011;2417;52.482;13.432;2024-03-23T05:43:21;22.73;;;7.10;;
4806;SDS011;2417;52.482;13.432;2024-03-23T05:45:54;31.20;;;7.53;;
4806;SDS011;2417;52.482;13.432;2024-03-23T05:48:21;28.00;;;7.80;;
4806;SDS011;2417;52.482;13.432;2024-03-23T05:50:48;19.70;;;7.13;;
4806;SDS011;2417;52.482;13.432;2024-03-23T05:53:16;26.57;;;6.70;;
4806;SDS011;2417;52.482;13.432;2024-03-23T05:55:42;30.60;;;9.07;;
4806;SDS011;2417;52.482;13.432;2024-03-23T05:58:09;32.60;;;8.20;;
4806;SDS011;2417;52.482;13.432;2024-03-23T06:00:35;36.60;;;9.97;;
4806;SDS011;2417;52.482;13.432;2024-03-23T06:03:04;23.63;;;7.27;;
4806;SDS011;2417;52.482;13.432;2024-03-23T06:05:54;36.70;;;8.40;;
4806;SDS011;2417;52.482;13.432;2024-03-23T06:08:24;33.63;;;8.33;;
4806;SDS011;2417;52.482;13.432;2024-03-23T06:10:50;32.77;;;10.40;;
4806;SDS011;2417;52.482;13.432;2024-03-23T06:13:17;33.20;;;9.47;;
4806;SDS011;2417;52.482;13.432;2024-03-23T06:15:44;31.23;;;10.23;;
4806;SDS011;2417;52.482;13.432;2024-03-23T06:18:14;34.87;;;11.07;;
4806;SDS011;2417;52.482;13.432;2024-03-23T06:20:40;37.63;;;11.43;;
4806;SDS011;2417;52.482;13.432;2024-03-23T06:23:07;32.67;;;9.37;;
4806;SDS011;2417;52.482;13.432;2024-03-23T06:25:33;47.63;;;10.00;;
4806;SDS011;2417;52.482;13.432;2024-03-23T06:27:59;35.93;;;9.00;;
4806;SDS011;2417;52.482;13.432;2024-03-23T06:30:27;43.00;;;12.23;;
4806;SDS011;2417;52.482;13.432;2024-03-23T06:32:55;26.83;;;8.47;;
4806;SDS011;2417;52.482;13.432;2024-03-23T06:35:22;33.23;;;8.70;;
4806;SDS011;2417;52.482;13.432;2024-03-23T06:37:49;33.03;;;9.17;;
4806;SDS011;2417;52.482;13.432;2024-03-23T06:40:15;27.53;;;8.03;;
4806;SDS011;2417;52.482;13.432;2024-03-23T06:42:42;27.57;;;8.00;;
4806;SDS011;2417;52.482;13.432;2024-03-23T06:45:08;26.33;;;7.53;;
4806;SDS011;2417;52.482;13.432;2024-03-23T06:47:35;31.10;;;6.93;;
4806;SDS011;2417;52.482;13.432;2024-03-23T06:50:01;32.27;;;8.53;;
4806;SDS011;2417;52.482;13.432;2024-03-23T06:52:31;38.80;;;9.77;;
4806;SDS011;2417;52.482;13.432;2024-03-23T06:54:57;20.67;;;6.67;;
4806;SDS011;2417;52.482;13.432;2024-03-23T06:57:25;29.87;;;7.90;;
4806;SDS011;2417;52.482;13.432;2024-03-23T06:59:52;25.20;;;6.70;;
4806;SDS011;2417;52.482;13.432;2024-03-23T07:02:19;16.80;;;5.77;;
4806;SDS011;2417;52.482;13.432;2024-03-23T07:04:45;24.57;;;7.70;;
4806;SDS011;2417;52.482;13.432;2024-03-23T07:07:12;20.70;;;5.87;;
4806;SDS011;2417;52.482;13.432;2024-03-23T07:09:39;28.23;;;8.60;;
4806;SDS011;2417;52.482;13.432;2024-03-23T07:12:06;23.27;;;6.80;;
4806;SDS011;2417;52.482;13.432;2024-03-23T07:14:33;28.83;;;6.50;;
4806;SDS011;2417;52.482;13.432;2024-03-23T07:17:00;29.50;;;5.93;;
4806;SDS011;2417;52.482;13.432;2024-03-23T07:19:25;18.33;;;5.77;;
4806;SDS011;2417;52.482;13.432;2024-03-23T07:21:54;17.30;;;5.50;;
4806;SDS011;2417;52.482;13.432;2024-03-23T07:24:21;25.10;;;4.53;;
4806;SDS011;2417;52.482;13.432;2024-03-23T07:26:49;15.53;;;4.40;;
4806;SDS011;2417;52.482;13.432;2024-03-23T07:29:17;20.87;;;5.00;;
4806;SDS011;2417;52.482;13.432;2024-03-23T07:31:44;16.50;;;5.17;;
4806;SDS011;2417;52.482;13.432;2024-03-23T07:34:10;26.57;;;5.50;;
4806;SDS011;2417;52.482;13.432;2024-03-23T07:36:37;24.37;;;6.30;;
4806;SDS011;2417;52.482;13.432;2024-03-23T07:39:03;21.50;;;5.30;;
4806;SDS011;2417;52.482;13.432;2024-03-23T07:41:30;24.43;;;7.10;;
4806;SDS011;2417;52.482;13.432;2024-03-23T07:43:58;22.87;;;5.57;;
4806;SDS011;2417;52.482;13.432;2024-03-23T07:46:24;19.67;;;6.80;;
4806;SDS011;2417;52.482;13.432;2024-03-23T07:48:50;21.57;;;5.67;;
4806;SDS011;2417;52.482;13.432;2024-03-23T07:51:18;15.77;;;5.27;;
4806;SDS011;2417;52.482;13.432;2024-03-23T07:53:45;23.70;;;6.43;;
4806;SDS011;2417;52.482;13.432;2024-03-23T07:56:11;32.30;;;6.77;;
4806;SDS011;2417;52.482;13.432;2024-03-23T07:58:39;24.20;;;7.23;;
4806;SDS011;2417;52.482;13.432;2024-03-23T08:01:08;21.60;;;5.80;;
4806;SDS011;2417;52.482;13.432;2024-03-23T08:03:34;20.80;;;5.33;;
4806;SDS011;2417;52.482;13.432;2024-03-23T08:06:08;18.83;;;6.50;;
4806;SDS011;2417;52.482;13.432;2024-03-23T08:08:34;23.63;;;5.93;;
4806;SDS011;2417;52.482;13.432;2024-03-23T08:11:01;21.80;;;6.93;;
4806;SDS011;2417;52.482;13.432;2024-03-23T08:13:28;24.23;;;5.30;;
4806;SDS011;2417;52.482;13.432;2024-03-23T08:15:56;17.10;;;6.00;;
4806;SDS011;2417;52.482;13.432;2024-03-23T08:18:45;22.30;;;8.17;;
4806;SDS011;2417;52.482;13.432;2024-03-23T08:21:32;22.23;;;6.73;;
4806;SDS011;2417;52.482;13.432;2024-03-23T08:23:58;24.13;;;11.47;;
4806;SDS011;2417;52.482;13.432;2024-03-23T08:26:26;25.50;;;9.07;;
4806;SDS011;2417;52.482;13.432;2024-03-23T08:28:54;20.43;;;5.80;;
4806;SDS011;2417;52.482;13.432;2024-03-23T08:31:21;13.73;;;5.27;;
4806;SDS011;2417;52.482;13.432;2024-03-23T08:33:49;32.30;;;8.10;;
4806;SDS011;2417;52.482;13.432;2024-03-23T08:36:16;16.27;;;5.30;;
4806;SDS011;2417;52.482;13.432;2024-03-23T08:38:42;18.70;;;6.00;;
4806;SDS011;2417;52.482;13.432;2024-03-23T08:41:10;13.07;;;6.17;;
4806;SDS011;2417;52.482;13.432;2024-03-23T08:43:36;20.37;;;6.60;;
4806;SDS011;2417;52.482;13.432;2024-03-23T08:46:06;19.73;;;5.83;;
4806;SDS011;2417;52.482;13.432;2024-03-23T08:48:34;20.77;;;9.27;;
4806;SDS011;2417;52.482;13.432;2024-03-23T08:51:03;16.33;;;5.50;;
4806;SDS011;2417;52.482;13.432;2024-03-23T08:53:30;28.03;;;11.60;;
4806;SDS011;2417;52.482;13.432;2024-03-23T08:55:57;27.73;;;9.77;;
4806;SDS011;2417;52.482;13.432;2024-03-23T08:58:23;20.57;;;6.73;;
4806;SDS011;2417;52.482;13.432;2024-03-23T09:00:50;17.07;;;5.67;;
4806;SDS011;2417;52.482;13.432;2024-03-23T09:03:17;26.93;;;8.13;;
4806;SDS011;2417;52.482;13.432;2024-03-23T09:05:44;29.67;;;11.40;;
4806;SDS011;2417;52.482;13.432;2024-03-23T09:08:11;23.47;;;7.37;;
4806;SDS011;2417;52.482;13.432;2024-03-23T09:10:39;23.00;;;9.00;;
4806;SDS011;2417;52.482;13.432;2024-03-23T09:13:05;29.00;;;12.50;;
4806;SDS011;2417;52.482;13.432;2024-03-23T09:15:32;21.13;;;6.70;;
4806;SDS011;2417;52.482;13.432;2024-03-23T09:17:58;18.23;;;6.43;;
4806;SDS011;2417;52.482;13.432;2024-03-23T09:20:25;14.03;;;5.00;;
4806;SDS011;2417;52.482;13.432;2024-03-23T09:22:51;12.67;;;4.80;;
4806;SDS011;2417;52.482;13.432;2024-03-23T09:25:22;19.77;;;5.80;;
4806;SDS011;2417;52.482;13.432;2024-03-23T09:27:49;12.80;;;4.30;;
4806;SDS011;2417;52.482;13.432;2024-03-23T09:30:16;33.03;;;9.63;;
4806;SDS011;2417;52.482;13.432;2024-03-23T09:32:43;16.50;;;5.67;;
4806;SDS011;2417;52.482;13.432;2024-03-23T09:35:10;11.13;;;4.50;;
4806;SDS011;2417;52.482;13.432;2024-03-23T09:37:36;12.67;;;4.20;;
4806;SDS011;2417;52.482;13.432;2024-03-23T09:40:03;15.33;;;6.33;;
4806;SDS011;2417;52.482;13.432;2024-03-23T09:42:32;20.57;;;4.63;;
4806;SDS011;2417;52.482;13.432;2024-03-23T09:44:59;17.90;;;6.13;;
4806;SDS011;2417;52.482;13.432;2024-03-23T09:47:26;13.87;;;5.17;;
4806;SDS011;2417;52.482;13.432;2024-03-23T09:49:53;14.40;;;4.70;;
4806;SDS011;2417;52.482;13.432;2024-03-23T09:52:20;22.97;;;5.47;;
4806;SDS011;2417;52.482;13.432;2024-03-23T09:54:47;17.80;;;5.77;;
4806;SDS011;2417;52.482;13.432;2024-03-23T09:57:13;20.07;;;5.67;;
4806;SDS011;2417;52.482;13.432;2024-03-23T09:59:42;12.37;;;4.23;;
4806;SDS011;2417;52.482;13.432;2024-03-23T10:02:08;14.67;;;5.90;;
4806;SDS011;2417;52.482;13.432;2024-03-23T10:04:36;17.70;;;4.90;;
4806;SDS011;2417;52.482;13.432;2024-03-23T10:07:10;16.10;;;4.63;;
4806;SDS011;2417;52.482;13.432;2024-03-23T10:09:37;14.67;;;5.13;;
4806;SDS011;2417;52.482;13.432;2024-03-23T10:12:08;21.60;;;3.90;;
4806;SDS011;2417;52.482;13.432;2024-03-23T10:14:35;18.20;;;4.40;;
4806;SDS011;2417;52.482;13.432;2024-03-23T10:17:13;13.60;;;4.77;;
4806;SDS011;2417;52.482;13.432;2024-03-23T10:19:41;14.37;;;4.83;;
4806;SDS011;2417;52.482;13.432;2024-03-23T10:22:08;26.43;;;4.20;;
4806;SDS011;2417;52.482;13.432;2024-03-23T10:24:35;11.80;;;4.17;;
4806;SDS011;2417;52.482;13.432;2024-03-23T10:27:01;20.03;;;4.50;;
4806;SDS011;2417;52.482;13.432;2024-03-23T10:29:28;17.13;;;5.43;;
4806;SDS011;2417;52.482;13.432;2024-03-23T10:31:55;13.67;;;4.30;;
4806;SDS011;2417;52.482;13.432;2024-03-23T10:34:26;15.37;;;5.50;;
4806;SDS011;2417;52.482;13.432;2024-03-23T10:36:53;16.33;;;3.80;;
4806;SDS011;2417;52.482;13.432;2024-03-23T10:39:20;25.20;;;4.80;;
4806;SDS011;2417;52.482;13.432;2024-03-23T10:41:48;17.43;;;4.83;;
4806;SDS011;2417;52.482;13.432;2024-03-23T10:44:16;15.83;;;5.50;;
4806;SDS011;2417;52.482;13.432;2024-03-23T10:46:43;17.90;;;4.93;;
4806;SDS011;2417;52.482;13.432;2024-03-23T10:49:09;20.23;;;5.53;;
4806;SDS011;2417;52.482;13.432;2024-03-23T10:51:37;27.80;;;4.90;;
4806;SDS011;2417;52.482;13.432;2024-03-23T10:54:04;24.77;;;6.33;;
4806;SDS011;2417;52.482;13.432;2024-03-23T10:56:31;23.13;;;4.83;;
4806;SDS011;2417;52.482;13.432;2024-03-23T10:59:01;19.23;;;6.30;;
4806;SDS011;2417;52.482;13.432;2024-03-23T11:01:28;19.20;;;3.97;;
4806;SDS011;2417;52.482;13.432;2024-03-23T11:03:55;17.90;;;5.50;;
4806;SDS011;2417;52.482;13.432;2024-03-23T11:06:34;24.43;;;5.40;;
4806;SDS011;2417;52.482;13.432;2024-03-23T11:09:03;21.07;;;5.63;;
4806;SDS011;2417;52.482;13.432;2024-03-23T11:11:28;28.07;;;7.73;;
4806;SDS011;2417;52.482;13.432;2024-03-23T11:13:57;25.10;;;5.23;;
4806;SDS011;2417;52.482;13.432;2024-03-23T11:16:23;21.63;;;5.20;;
4806;SDS011;2417;52.482;13.432;2024-03-23T11:18:53;20.17;;;7.07;;
4806;SDS011;2417;52.482;13.432;2024-03-23T11:24:14;22.27;;;5.53;;
4806;SDS011;2417;52.482;13.432;2024-03-23T11:26:40;21.03;;;4.53;;
4806;SDS011;2417;52.482;13.432;2024-03-23T11:29:10;16.33;;;4.23;;
4806;SDS011;2417;52.482;13.432;2024-03-23T11:31:37;21.50;;;5.10;;
4806;SDS011;2417;52.482;13.432;2024-03-23T11:34:04;21.20;;;4.63;;
4806;SDS011;2417;52.482;13.432;2024-03-23T11:36:30;18.33;;;5.77;;
4806;SDS011;2417;52.482;13.432;2024-03-23T11:38:57;19.93;;;5.20;;
4806;SDS011;2417;52.482;13.432;2024-03-23T11:41:24;21.83;;;5.77;;
4806;SDS011;2417;52.482;13.432;2024-03-23T11:43:51;17.17;;;4.93;;
4806;SDS011;2417;52.482;13.432;2024-03-23T11:46:22;28.53;;;5.60;;
4806;SDS011;2417;52.482;13.432;2024-03-23T11:48:49;21.50;;;6.10;;
4806;SDS011;2417;52.482;13.432;2024-03-23T11:51:15;23.60;;;6.87;;
4806;SDS011;2417;52.482;13.432;2024-03-23T11:53:43;15.63;;;5.90;;
4806;SDS011;2417;52.482;13.432;2024-03-23T11:56:09;20.37;;;6.07;;
4806;SDS011;2417;52.482;13.432;2024-03-23T11:58:39;20.60;;;4.53;;
4806;SDS011;2417;52.482;13.432;2024-03-23T12:01:09;13.37;;;4.43;;
4806;SDS011;2417;52.482;13.432;2024-03-23T12:03:37;22.70;;;4.70;;
4806;SDS011;2417;52.482;13.432;2024-03-23T12:06:03;21.80;;;4.50;;
4806;SDS011;2417;52.482;13.432;2024-03-23T12:08:31;18.33;;;5.10;;
4806;SDS011;2417;52.482;13.432;2024-03-23T12:11:04;18.30;;;5.50;;
4806;SDS011;2417;52.482;13.432;2024-03-23T12:13:32;17.13;;;4.60;;
4806;SDS011;2417;52.482;13.432;2024-03-23T12:16:09;24.37;;;5.00;;
4806;SDS011;2417;52.482;13.432;2024-03-23T12:18:37;15.30;;;5.83;;
4806;SDS011;2417;52.482;13.432;2024-03-23T12:21:03;16.73;;;5.17;;
4806;SDS011;2417;52.482;13.432;2024-03-23T12:23:30;18.73;;;4.13;;
4806;SDS011;2417;52.482;13.432;2024-03-23T12:25:56;24.43;;;5.10;;
4806;SDS011;2417;52.482;13.432;2024-03-23T12:28:23;18.97;;;4.37;;
4806;SDS011;2417;52.482;13.432;2024-03-23T12:30:49;20.00;;;5.13;;
4806;SDS011;2417;52.482;13.432;2024-03-23T12:33:18;22.77;;;4.93;;
4806;SDS011;2417;52.482;13.432;2024-03-23T12:35:44;24.77;;;4.77;;
4806;SDS011;2417;52.482;13.432;2024-03-23T12:38:11;20.13;;;5.20;;
4806;SDS011;2417;52.482;13.432;2024-03-23T12:40:37;27.63;;;5.87;;
4806;SDS011;2417;52.482;13.432;2024-03-23T12:43:04;23.33;;;6.07;;
4806;SDS011;2417;52.482;13.432;2024-03-23T12:45:30;23.70;;;6.33;;
4806;SDS011;2417;52.482;13.432;2024-03-23T12:47:57;19.47;;;5.83;;
4806;SDS011;2417;52.482;13.432;2024-03-23T12:50:24;25.10;;;6.70;;
4806;SDS011;2417;52.482;13.432;2024-03-23T12:52:51;22.70;;;7.50;;
4806;SDS011;2417;52.482;13.432;2024-03-23T12:55:17;13.23;;;4.57;;
4806;SDS011;2417;52.482;13.432;2024-03-23T12:57:46;18.63;;;4.93;;
4806;SDS011;2417;52.482;13.432;2024-03-23T13:00:12;11.10;;;4.23;;
4806;SDS011;2417;52.482;13.432;2024-03-23T13:02:41;22.20;;;4.43;;
4806;SDS011;2417;52.482;13.432;2024-03-23T13:05:07;26.37;;;5.73;;
4806;SDS011;2417;52.482;13.432;2024-03-23T13:07:36;22.63;;;5.80;;
4806;SDS011;2417;52.482;13.432;2024-03-23T13:10:06;18.27;;;5.20;;
4806;SDS011;2417;52.482;13.432;2024-03-23T13:12:34;15.43;;;4.57;;
4806;SDS011;2417;52.482;13.432;2024-03-23T13:15:00;17.60;;;5.00;;
4806;SDS011;2417;52.482;13.432;2024-03-23T13:17:29;20.80;;;7.07;;
4806;SDS011;2417;52.482;13.432;2024-03-23T13:19:55;27.90;;;6.50;;
4806;SDS011;2417;52.482;13.432;2024-03-23T13:22:22;16.83;;;6.67;;
4806;SDS011;2417;52.482;13.432;2024-03-23T13:24:50;22.53;;;7.30;;
4806;SDS011;2417;52.482;13.432;2024-03-23T13:27:18;33.47;;;9.80;;
4806;SDS011;2417;52.482;13.432;2024-03-23T13:29:44;52.40;;;14.70;;
4806;SDS011;2417;52.482;13.432;2024-03-23T13:32:12;27.30;;;8.50;;
4806;SDS011;2417;52.482;13.432;2024-03-23T13:34:37;20.23;;;7.53;;
4806;SDS011;2417;52.482;13.432;2024-03-23T13:37:04;24.13;;;7.67;;
4806;SDS011;2417;52.482;13.432;2024-03-23T13:39:33;24.13;;;7.40;;
4806;SDS011;2417;52.482;13.432;2024-03-23T13:42:01;22.40;;;6.03;;
4806;SDS011;2417;52.482;13.432;2024-03-23T13:44:27;19.77;;;6.93;;
4806;SDS011;2417;52.482;13.432;2024-03-23T13:46:55;18.83;;;6.00;;
4806;SDS011;2417;52.482;13.432;2024-03-23T13:49:24;18.30;;;5.60;;
4806;SDS011;2417;52.482;13.432;2024-03-23T13:51:52;14.40;;;4.73;;
4806;SDS011;2417;52.482;13.432;2024-03-23T13:54:18;9.43;;;4.00;;
4806;SDS011;2417;52.482;13.432;2024-03-23T13:56:45;13.27;;;4.57;;
4806;SDS011;2417;52.482;13.432;2024-03-23T13:59:12;13.73;;;4.50;;
4806;SDS011;2417;52.482;13.432;2024-03-23T14:01:40;13.80;;;3.30;;
4806;SDS011;2417;52.482;13.432;2024-03-23T14:04:06;10.00;;;3.30;;
4806;SDS011;2417;52.482;13.432;2024-03-23T14:06:33;12.67;;;3.33;;
4806;SDS011;2417;52.482;13.432;2024-03-23T14:08:59;18.07;;;2.97;;
4806;SDS011;2417;52.482;13.432;2024-03-23T14:11:26;10.13;;;3.37;;
4806;SDS011;2417;52.482;13.432;2024-03-23T14:13:54;11.67;;;3.30;;
4806;SDS011;2417;52.482;13.432;2024-03-23T14:16:22;10.43;;;3.00;;
4806;SDS011;2417;52.482;13.432;2024-03-23T14:18:48;18.60;;;2.83;;
4806;SDS011;2417;52.482;13.432;2024-03-23T14:21:37;9.30;;;2.97;;
4806;SDS011;2417;52.482;13.432;2024-03-23T14:24:04;7.43;;;2.87;;
4806;SDS011;2417;52.482;13.432;2024-03-23T14:26:31;12.03;;;3.20;;
4806;SDS011;2417;52.482;13.432;2024-03-23T14:28:58;9.33;;;4.30;;
4806;SDS011;2417;52.482;13.432;2024-03-23T14:31:25;8.73;;;3.30;;
4806;SDS011;2417;52.482;13.432;2024-03-23T14:33:54;8.70;;;3.23;;
4806;SDS011;2417;52.482;13.432;2024-03-23T14:36:20;17.83;;;4.33;;
4806;SDS011;2417;52.482;13.432;2024-03-23T14:38:47;19.30;;;5.63;;
4806;SDS011;2417;52.482;13.432;2024-03-23T14:41:13;16.67;;;4.90;;
4806;SDS011;2417;52.482;13.432;2024-03-23T14:43:40;9.20;;;3.90;;
4806;SDS011;2417;52.482;13.432;2024-03-23T14:46:06;10.43;;;3.63;;
4806;SDS011;2417;52.482;13.432;2024-03-23T14:48:35;9.83;;;3.20;;
4806;SDS011;2417;52.482;13.432;2024-03-23T14:51:01;14.80;;;4.40;;
4806;SDS011;2417;52.482;13.432;2024-03-23T14:53:30;16.47;;;4.20;;
4806;SDS011;2417;52.482;13.432;2024-03-23T14:55:56;8.87;;;3.50;;
4806;SDS011;2417;52.482;13.432;2024-03-23T14:58:23;10.67;;;3.80;;
4806;SDS011;2417;52.482;13.432;2024-03-23T15:00:50;15.90;;;3.50;;
4806;SDS011;2417;52.482;13.432;2024-03-23T15:03:18;13.07;;;4.07;;
4806;SDS011;2417;52.482;13.432;2024-03-23T15:05:52;13.23;;;5.10;;
4806;SDS011;2417;52.482;13.432;2024-03-23T15:08:19;22.57;;;5.90;;
4806;SDS011;2417;52.482;13.432;2024-03-23T15:10:48;13.60;;;5.00;;
4806;SDS011;2417;52.482;13.432;2024-03-23T15:13:15;11.30;;;4.77;;
4806;SDS011;2417;52.482;13.432;2024-03-23T15:15:42;13.33;;;5.10;;
4806;SDS011;2417;52.482;13.432;2024-03-23T15:18:10;9.17;;;5.03;;
4806;SDS011;2417;52.482;13.432;2024-03-23T15:20:38;11.40;;;5.70;;
4806;SDS011;2417;52.482;13.432;2024-03-23T15:23:06;18.10;;;6.73;;
4806;SDS011;2417;52.482;13.432;2024-03-23T15:25:32;18.10;;;7.43;;
4806;SDS011;2417;52.482;13.432;2024-03-23T15:27:59;14.10;;;6.83;;
4806;SDS011;2417;52.482;13.432;2024-03-23T15:30:25;21.90;;;6.70;;
4806;SDS011;2417;52.482;13.432;2024-03-23T15:32:52;15.13;;;4.77;;
4806;SDS011;2417;52.482;13.432;2024-03-23T15:35:18;12.10;;;4.67;;
4806;SDS011;2417;52.482;13.432;2024-03-23T15:37:50;11.67;;;4.90;;
4806;SDS011;2417;52.482;13.432;2024-03-23T15:40:18;11.70;;;4.90;;
4806;SDS011;2417;52.482;13.432;2024-03-23T15:42:44;14.37;;;4.90;;
4806;SDS011;2417;52.482;13.432;2024-03-23T15:45:11;12.80;;;5.10;;